Terminal Aerodrome Forecast
Issued by NWS Upton, NY

Home | Current Version | Previous Version | Text Only | Print | Product List | Glossary On
Versions: 1 2 3 4 5 6 7 8 9 10 11 12 13 14 15 16 17 18 19 20 21 22 23 24 25 26 27 28 29 30 31 32 33 34 35 36
000
FTUS41 KOKX 180200 AAA
TAFJFK
TAF AMD
KJFK 180237Z 1803/1906 07009KT P6SM FEW025 BKN250
     FM180900 05008KT P6SM BKN015 BKN250
     FM181400 09008KT P6SM SCT020 BKN250
     FM181800 17015KT P6SM FEW030 BKN250
     FM190200 20007KT P6SM BKN150=

USA.gov is the U.S. government's official web portal to all federal, state and local government web resources and services.